Terminal Aerodrome Forecast (TAF)

TAF

Data at: 0935 UTC 05 Apr 2020

TAF for:NVSC (Sola/Vanua Lava Arpt, TO, NV) issued at 0430 UTC 05 Apr 2020
Text:TAF NVSC 050430Z 0506/0606 36027G37KT 9000 -SHRA FEW010 BKN020 OVC100
Forecast period:0600 UTC 05 April 2020 to 0600 UTC 06 April 2020
Forecast type:FROM: standard forecast or significant change
Winds:from the N (360 degrees) at 31 MPH (27 knots; 13.9 m/s) gusting to 43 MPH (37 knots; 19.0 m/s)
Visibility: 6 sm ( 9 km)
Ceiling:2000 feet AGL
Clouds: few clouds at 1000 feet AGL, broken clouds at 2000 feet AGL, overcast cloud deck at 10000 feet AGL
Weather:-SHRA (light rain showers)
Text:INTER 0506/0512 5000 TSRA SCT006 BKN015 SCT018CB OVC060
Forecast period:0600 to 1200 UTC 05 April 2020
Forecast type:TEMPORARY: The following changes expected for less than half the time period
Visibility: 3 sm ( 5 km)
Ceiling:1500 feet AGL
Clouds: scattered clouds at 600 feet AGL, broken clouds at 1500 feet AGL, scattered clouds at 1800 feet AGL
Weather:TSRA (rain associated with thunderstorm(s))

TAF

Data at: 0935 UTC 05 Apr 2020

TAF for:NVSG (Longana Arpt, PA, NV) issued at 0430 UTC 05 Apr 2020
Text:TAF NVSG 050430Z 0506/0606 09015G25KT 9999 -SHRA FEW010 BKN020 OVC080
Forecast period:0600 UTC 05 April 2020 to 0600 UTC 06 April 2020
Forecast type:FROM: standard forecast or significant change
Winds:from the E (90 degrees) at 17 MPH (15 knots; 7.7 m/s) gusting to 29 MPH (25 knots; 12.9 m/s)
Visibility:6 or more sm (10+ km)
Ceiling:2000 feet AGL
Clouds: few clouds at 1000 feet AGL, broken clouds at 2000 feet AGL, overcast cloud deck at 8000 feet AGL
Weather:-SHRA (light rain showers)
Text:INTER 0506/0512 4000 TSRA SCT006 BKN015 FEW020CB OVC060
Forecast period:0600 to 1200 UTC 05 April 2020
Forecast type:TEMPORARY: The following changes expected for less than half the time period
Visibility: 2.49 sm ( 4.01 km)
Ceiling:1500 feet AGL
Clouds: scattered clouds at 600 feet AGL, broken clouds at 1500 feet AGL, few clouds at 2000 feet AGL
Weather:TSRA (rain associated with thunderstorm(s))

TAF

Data at: 0935 UTC 05 Apr 2020

TAF for:NVSS (Santo/Pekoa Intl, SA, NV) issued at 0430 UTC 05 Apr 2020
Text:TAF NVSS 050430Z 0506/0606 09030G40KT 9999 -SHRA FEW010 BKN020 OVC080
Forecast period:0600 UTC 05 April 2020 to 0600 UTC 06 April 2020
Forecast type:FROM: standard forecast or significant change
Winds:from the E (90 degrees) at 34 MPH (30 knots; 15.4 m/s) gusting to 46 MPH (40 knots; 20.6 m/s)
Visibility:6 or more sm (10+ km)
Ceiling:2000 feet AGL
Clouds: few clouds at 1000 feet AGL, broken clouds at 2000 feet AGL, overcast cloud deck at 8000 feet AGL
Weather:-SHRA (light rain showers)
Text:INTER 0506/0512 5000 TSRA SCT006 BKN015 SCT018CB OCV060
Forecast period:0600 to 1200 UTC 05 April 2020
Forecast type:TEMPORARY: The following changes expected for less than half the time period
Visibility: 3 sm ( 5 km)
Ceiling:1500 feet AGL
Clouds: scattered clouds at 600 feet AGL, broken clouds at 1500 feet AGL, scattered clouds at 1800 feet AGL
Weather:TSRA (rain associated with thunderstorm(s))

TAF

Data at: 0935 UTC 05 Apr 2020

TAF for:NVSL (Malekula Isl/Lamap, MA, NV) issued at 0430 UTC 05 Apr 2020
Text:TAF NVSL 050430Z 0506/0606 05016G26KT 9999 FEW010 BKN020 OVC080
Forecast period:0600 UTC 05 April 2020 to 0600 UTC 06 April 2020
Forecast type:FROM: standard forecast or significant change
Winds:from the NE (50 degrees) at 18 MPH (16 knots; 8.2 m/s) gusting to 30 MPH (26 knots; 13.4 m/s)
Visibility:6 or more sm (10+ km)
Ceiling:2000 feet AGL
Clouds: few clouds at 1000 feet AGL, broken clouds at 2000 feet AGL, overcast cloud deck at 8000 feet AGL
Text:INTER 0506/0512 6000 TSRA FEW008 BKN016 FEW022CB OVC070
Forecast period:0600 to 1200 UTC 05 April 2020
Forecast type:TEMPORARY: The following changes expected for less than half the time period
Visibility: 4 sm ( 6 km)
Ceiling:1600 feet AGL
Clouds: few clouds at 800 feet AGL, broken clouds at 1600 feet AGL, few clouds at 2200 feet AGL
Weather:TSRA (rain associated with thunderstorm(s))

TAF

Data at: 0935 UTC 05 Apr 2020

TAF for:NVSP (Norsup Arpt, MA, NV) issued at 0430 UTC 05 Apr 2020
Text:TAF NVSP 050430Z 0506/0606 07025G35KT 9999 -SHRA FEW010 BKN020 OVC080
Forecast period:0600 UTC 05 April 2020 to 0600 UTC 06 April 2020
Forecast type:FROM: standard forecast or significant change
Winds:from the ENE (70 degrees) at 29 MPH (25 knots; 12.9 m/s) gusting to 40 MPH (35 knots; 18.0 m/s)
Visibility:6 or more sm (10+ km)
Ceiling:2000 feet AGL
Clouds: few clouds at 1000 feet AGL, broken clouds at 2000 feet AGL, overcast cloud deck at 8000 feet AGL
Weather:-SHRA (light rain showers)
Text:INTER 0506/0512 6000 TSRA SCT008 BKN015 FEW022CB OVC060
Forecast period:0600 to 1200 UTC 05 April 2020
Forecast type:TEMPORARY: The following changes expected for less than half the time period
Visibility: 4 sm ( 6 km)
Ceiling:1500 feet AGL
Clouds: scattered clouds at 800 feet AGL, broken clouds at 1500 feet AGL, few clouds at 2200 feet AGL
Weather:TSRA (rain associated with thunderstorm(s))

TAF

Data at: 0935 UTC 05 Apr 2020

TAF for:NVVV (Efate/Bauerfield Int, SE, NV) issued at 0430 UTC 05 Apr 2020
Text:TAF NVVV 050430Z 0506/0606 07015G25KT 9999 FEW010 BKN020 OVC090
Forecast period:0600 UTC 05 April 2020 to 0600 UTC 06 April 2020
Forecast type:FROM: standard forecast or significant change
Winds:from the ENE (70 degrees) at 17 MPH (15 knots; 7.7 m/s) gusting to 29 MPH (25 knots; 12.9 m/s)
Visibility:6 or more sm (10+ km)
Ceiling:2000 feet AGL
Clouds: few clouds at 1000 feet AGL, broken clouds at 2000 feet AGL, overcast cloud deck at 9000 feet AGL
Text:INTER 0506/0512 7000 RA FEW008 BKN016 OVC070
Forecast period:0600 to 1200 UTC 05 April 2020
Forecast type:TEMPORARY: The following changes expected for less than half the time period
Visibility: 4 sm ( 7 km)
Ceiling:1600 feet AGL
Clouds: few clouds at 800 feet AGL, broken clouds at 1600 feet AGL, overcast cloud deck at 7000 feet AGL
Weather:RA (moderate rain)

TAF

Data at: 0935 UTC 05 Apr 2020

TAF for:NVVW (Tanna Arpt, TA, NV) issued at 0430 UTC 05 Apr 2020
Text:TAF NVVW 050430Z 0506/0606 07010G20KT 9999 FEW010 BKN020 OVC100
Forecast period:0600 UTC 05 April 2020 to 0600 UTC 06 April 2020
Forecast type:FROM: standard forecast or significant change
Winds:from the ENE (70 degrees) at 12 MPH (10 knots; 5.1 m/s) gusting to 23 MPH (20 knots; 10.3 m/s)
Visibility:6 or more sm (10+ km)
Ceiling:2000 feet AGL
Clouds: few clouds at 1000 feet AGL, broken clouds at 2000 feet AGL, overcast cloud deck at 10000 feet AGL
Text:INTER 0506/0512 7000 RA FEW008 BKN016 OVC070
Forecast period:0600 to 1200 UTC 05 April 2020
Forecast type:TEMPORARY: The following changes expected for less than half the time period
Visibility: 4 sm ( 7 km)
Ceiling:1600 feet AGL
Clouds: few clouds at 800 feet AGL, broken clouds at 1600 feet AGL, overcast cloud deck at 7000 feet AGL
Weather:RA (moderate rain)

TAF

Data at: 0935 UTC 05 Apr 2020

TAF for:NVVA (Aneityum/Mystery Isl, TA, NV) issued at 0430 UTC 05 Apr 2020
Text:TAF NVVA 050430Z 0506/0606 09010G20KT 9999 FEW010 BKN020 OVC100
Forecast period:0600 UTC 05 April 2020 to 0600 UTC 06 April 2020
Forecast type:FROM: standard forecast or significant change
Winds:from the E (90 degrees) at 12 MPH (10 knots; 5.1 m/s) gusting to 23 MPH (20 knots; 10.3 m/s)
Visibility:6 or more sm (10+ km)
Ceiling:2000 feet AGL
Clouds: few clouds at 1000 feet AGL, broken clouds at 2000 feet AGL, overcast cloud deck at 10000 feet AGL
Text:INTER 0506/0512 7000 RA FEW008 BKN016 OVC070
Forecast period:0600 to 1200 UTC 05 April 2020
Forecast type:TEMPORARY: The following changes expected for less than half the time period
Visibility: 4 sm ( 7 km)
Ceiling:1600 feet AGL
Clouds: few clouds at 800 feet AGL, broken clouds at 1600 feet AGL, overcast cloud deck at 7000 feet AGL
Weather:RA (moderate rain)

TAF

Data at: 0935 UTC 05 Apr 2020

TAF NVVV 050430Z 0506/0606 07015G25KT 9999 FEW010 BKN020 OVC090
  INTER 0506/0512 7000 RA FEW008 BKN016 OVC070
TAF NVSC 050430Z 0506/0606 36027G37KT 9000 -SHRA FEW010 BKN020 OVC100
  INTER 0506/0512 5000 TSRA SCT006 BKN015 SCT018CB OVC060
TAF NVSG 050430Z 0506/0606 09015G25KT 9999 -SHRA FEW010 BKN020 OVC080
  INTER 0506/0512 4000 TSRA SCT006 BKN015 FEW020CB OVC060
TAF NVSS 050430Z 0506/0606 09030G40KT 9999 -SHRA FEW010 BKN020 OVC080
  INTER 0506/0512 5000 TSRA SCT006 BKN015 SCT018CB OCV060
TAF NVSL 050430Z 0506/0606 05016G26KT 9999 FEW010 BKN020 OVC080
  INTER 0506/0512 6000 TSRA FEW008 BKN016 FEW022CB OVC070
TAF NVSP 050430Z 0506/0606 07025G35KT 9999 -SHRA FEW010 BKN020 OVC080
  INTER 0506/0512 6000 TSRA SCT008 BKN015 FEW022CB OVC060
TAF NVVW 050430Z 0506/0606 07010G20KT 9999 FEW010 BKN020 OVC100
  INTER 0506/0512 7000 RA FEW008 BKN016 OVC070
TAF NVVA 050430Z 0506/0606 09010G20KT 9999 FEW010 BKN020 OVC100
  INTER 0506/0512 7000 RA FEW008 BKN016 OVC070